This is the latest recevied weather packets stored in our database for station/object IW0REF-8. If no packets are shown the sender has not sent any weather packets the latest 10 day(s).
| Time | Temp. | Humidity | Pressure | Rain* | Wind** | Luminosity | Snow |
|---|---|---|---|---|---|---|---|
| 1777268471 | 14.44° C | 50% | 1025.6 hPa | - | - | - | - |
| 1777267571 | 13.89° C | 50% | 1025.5 hPa | - | - | - | - |
| 1777266671 | 13.33° C | 52% | 1025.6 hPa | - | - | - | - |
| 1777265771 | 11.67° C | 57% | 1026.1 hPa | - | - | - | - |
| 1777264871 | 10.56° C | 56% | 1025.9 hPa | - | - | - | - |
| 1777263970 | 10.56° C | 57% | 1025.8 hPa | - | - | - | - |
| 1777263070 | 10° C | 57% | 1025.8 hPa | - | - | - | - |
| 1777262170 | 10° C | 58% | 1025.8 hPa | - | - | - | - |
| 1777261270 | 10° C | 54% | 1025.5 hPa | - | - | - | - |
| 1777260368 | 10.56° C | 54% | 1025.5 hPa | - | - | - | - |
| 1777259468 | 10.56° C | 52% | 1025.2 hPa | - | - | - | - |
| 1777258568 | 11.11° C | 52% | 1025.3 hPa | - | - | - | - |
| 1777257665 | 11.11° C | 51% | 1025.2 hPa | - | - | - | - |
| 1777256765 | 11.11° C | 51% | 1025.2 hPa | - | - | - | - |
| 1777255864 | 11.67° C | 52% | 1025.3 hPa | - | - | - | - |
| 1777254964 | 11.67° C | 52% | 1025.3 hPa | - | - | - | - |
| 1777254064 | 11.67° C | 52% | 1025.4 hPa | - | - | - | - |
| 1777253164 | 12.22° C | 49% | 1025.1 hPa | - | - | - | - |
| 1777252407 | 12.22° C | 51% | 1025.2 hPa | - | - | - | - |
| 1777252259 | 12.22° C | 51% | 1025.2 hPa | - | - | - | - |
| 1777251359 | 12.78° C | 49% | 1025.1 hPa | - | - | - | - |
| 1777250459 | 12.22° C | 49% | 1025 hPa | - | - | - | - |
| 1777249559 | 12.78° C | 49% | 1025.1 hPa | - | - | - | - |
| 1777248657 | 12.78° C | 48% | 1025.1 hPa | - | - | - | - |
| 1777247757 | 12.78° C | 44% | 1024.7 hPa | - | - | - | - |
* Rain since midnight (hover to see other rain measurements)
** Current wind speed in m/s (hover to see current wind gust speed)